Time;durP1;ratioP1;P1;durP2;ratioP2;P2;SDS_P1;SDS_P2;PMS_P1;PMS_P2;Temp;Humidity;BMP_temperature;BMP_pressure;BME280_temperature;BME280_humidity;BME280_pressure;Samples;Min_cycle;Max_cycle;Signal;HPM_P1;HPM_P2
2023/01/04 00:01:50;;;;;;;13.63;9.63;;;11.00;99.70;;;11.12;64.12;95898.41;4982509;28;20466;-58
2023/01/04 00:04:19;;;;;;;17.30;11.17;;;11.00;99.80;;;11.13;63.63;95906.19;4982835;28;20498;-57
2023/01/04 00:06:46;;;;;;;19.57;11.13;;;11.00;99.60;;;11.16;63.81;95909.56;4987046;28;20489;-56
2023/01/04 00:09:13;;;;;;;11.17;9.43;;;11.10;99.60;;;11.17;63.96;95898.06;4980211;28;20569;-58
2023/01/04 00:11:40;;;;;;;17.20;10.00;;;11.10;99.80;;;11.18;63.90;95891.84;4982475;28;20970;-56
2023/01/04 00:14:09;;;;;;;14.53;9.90;;;11.10;99.70;;;11.19;63.88;95893.53;4983141;28;20478;-57
2023/01/04 00:16:36;;;;;;;10.53;9.03;;;11.10;99.80;;;11.21;63.84;95902.97;4980240;28;20538;-57
2023/01/04 00:19:03;;;;;;;9.20;8.07;;;11.10;99.70;;;11.23;63.60;95900.22;4979554;28;20537;-54
2023/01/04 00:21:32;;;;;;;13.27;8.97;;;11.10;99.40;;;11.21;64.22;95897.72;4980784;28;20462;-57
2023/01/04 00:24:00;;;;;;;9.80;8.70;;;11.10;99.70;;;11.23;63.55;95900.22;4983637;28;20471;-58
2023/01/04 00:26:29;;;;;;;12.03;7.60;;;11.10;99.40;;;11.23;63.55;95903.72;4977401;28;20501;-58
2023/01/04 00:28:57;;;;;;;13.40;9.30;;;11.10;99.40;;;11.24;63.52;95905.38;4981924;28;20505;-56
2023/01/04 00:31:25;;;;;;;10.70;8.07;;;11.20;99.40;;;11.24;63.46;95908.00;4977970;28;20972;-56
2023/01/04 00:33:54;;;;;;;11.37;8.30;;;11.20;99.30;;;11.24;63.01;95910.63;4983930;28;20463;-56
2023/01/04 00:36:21;;;;;;;13.33;8.67;;;11.20;99.20;;;11.24;63.37;95915.91;4976362;28;20495;-57
2023/01/04 00:39:05;;;;;;;13.67;8.30;;;11.20;99.20;;;11.24;63.29;95907.19;4979505;28;20533;-56
2023/01/04 00:41:34;;;;;;;14.10;7.17;;;11.20;99.10;;;11.23;63.10;95914.25;4978415;28;20454;-56
2023/01/04 00:44:03;;;;;;;15.20;10.30;;;11.20;99.00;;;11.23;63.21;95910.75;4980596;28;20916;-56
2023/01/04 00:46:30;;;;;;;30.57;15.63;;;11.10;99.00;;;11.20;63.03;95906.59;4980323;28;20563;-57
2023/01/04 00:48:57;;;;;;;16.30;9.63;;;11.10;99.00;;;11.20;63.11;95911.84;4979422;28;20483;-56
2023/01/04 00:51:25;;;;;;;12.17;7.83;;;11.10;99.00;;;11.21;62.50;95917.94;4982292;28;20980;-57
2023/01/04 00:53:53;;;;;;;12.47;9.00;;;11.10;99.00;;;11.19;63.01;95910.16;4980350;28;20495;-56
2023/01/04 00:56:21;;;;;;;15.47;8.63;;;11.10;99.00;;;11.19;62.81;95915.44;4980756;28;20982;-56
2023/01/04 00:58:48;;;;;;;9.37;8.23;;;11.10;98.90;;;11.20;62.86;95917.13;4982568;28;20478;-56
2023/01/04 01:01:15;;;;;;;15.90;9.70;;;11.10;98.90;;;11.18;62.89;95926.91;4980165;28;20459;-56
2023/01/04 01:03:43;;;;;;;13.30;8.40;;;11.10;98.90;;;11.19;63.02;95927.75;4983135;28;20485;-58
2023/01/04 01:06:11;;;;;;;19.53;9.20;;;11.10;98.80;;;11.18;62.79;95915.53;4978943;28;21454;-56
2023/01/04 01:08:38;;;;;;;16.63;8.63;;;11.10;98.90;;;11.17;62.60;95924.38;4983873;28;20502;-56
2023/01/04 01:11:09;;;;;;;12.03;8.70;;;11.10;98.80;;;11.15;62.89;95929.78;4979398;28;20517;-56
2023/01/04 01:13:37;;;;;;;22.33;9.00;;;11.00;98.80;;;11.12;62.86;95930.88;4974172;28;20553;-55
2023/01/04 01:16:05;;;;;;;15.10;9.37;;;11.00;98.70;;;11.08;62.81;95934.69;4979140;28;20459;-57
2023/01/04 01:18:32;;;;;;;11.83;9.40;;;11.00;98.80;;;11.06;62.95;95939.22;4977139;28;20475;-56
2023/01/04 01:21:00;;;;;;;9.70;7.93;;;11.00;98.80;;;11.03;62.90;95944.72;4984105;28;20455;-56
2023/01/04 01:23:28;;;;;;;11.90;8.63;;;11.00;98.90;;;10.99;63.00;95935.38;4983492;28;20498;-57
2023/01/04 01:25:57;;;;;;;13.50;9.20;;;10.90;98.80;;;10.98;63.19;95936.31;4987917;28;20592;-54
2023/01/04 01:28:26;;;;;;;14.63;8.43;;;10.90;98.90;;;10.93;63.36;95931.41;4984207;28;20561;-55
2023/01/04 01:30:53;;;;;;;13.43;8.20;;;10.90;99.00;;;10.96;63.08;95934.78;4979076;28;20448;-57
2023/01/04 01:33:20;;;;;;;16.43;8.80;;;10.90;98.90;;;10.94;63.13;95934.91;4976892;28;20511;-56
2023/01/04 01:35:48;;;;;;;12.17;8.50;;;10.90;99.00;;;10.93;63.38;95936.66;4978308;28;20455;-55
2023/01/04 01:38:15;;;;;;;14.03;8.83;;;10.90;99.10;;;10.93;63.66;95930.56;4978874;28;20556;-56
2023/01/04 01:40:42;;;;;;;12.00;9.10;;;10.90;99.30;;;10.92;63.56;95928.88;4978116;28;20807;-56
2023/01/04 01:43:18;;;;;;;21.13;9.40;;;10.80;99.20;;;10.93;63.53;95930.56;4976271;28;20494;-56
2023/01/04 01:45:47;;;;;;;16.60;9.70;;;10.90;99.30;;;10.92;63.54;95928.88;4978709;28;20465;-57
2023/01/04 01:48:16;;;;;;;14.50;9.47;;;10.80;99.20;;;10.93;63.58;95930.56;4975660;28;20494;-56
2023/01/04 01:50:46;;;;;;;14.60;8.83;;;10.80;99.30;;;10.93;63.64;95936.66;4983906;28;20458;-55
2023/01/04 01:53:14;;;;;;;19.63;10.60;;;10.90;99.30;;;10.94;63.66;95932.25;4973232;28;20475;-55
2023/01/04 01:55:41;;;;;;;13.03;9.60;;;10.90;99.50;;;10.93;63.59;95920.03;4975916;28;20459;-56
2023/01/04 01:58:08;;;;;;;14.20;9.60;;;10.90;99.50;;;10.89;63.64;95915.97;4973428;28;20497;-55
2023/01/04 02:00:35;;;;;;;14.73;9.67;;;10.80;99.30;;;10.92;63.66;95923.63;4971088;28;20538;-56
2023/01/04 02:03:12;;;;;;;15.10;8.97;;;10.90;99.40;;;10.88;63.75;95923.03;4977905;28;20475;-56
2023/01/04 02:05:39;;;;;;;13.30;10.47;;;10.80;99.50;;;10.87;63.79;95923.13;4981062;28;20465;-55
2023/01/04 02:08:06;;;;;;;12.13;10.03;;;10.80;99.50;;;10.86;64.03;95918.81;4980321;28;21015;-55
2023/01/04 02:10:34;;;;;;;17.27;10.40;;;10.80;99.60;;;10.82;63.88;95915.59;4977344;28;20463;-55
2023/01/04 02:13:04;;;;;;;16.10;11.50;;;10.80;99.60;;;10.79;64.13;95915.00;4980506;28;20471;-55
2023/01/04 02:15:35;;;;;;;15.60;10.90;;;10.70;99.70;;;10.72;63.88;95912.81;4978315;28;20490;-56
2023/01/04 02:18:07;;;;;;;19.70;11.43;;;10.70;99.70;;;10.72;64.36;95917.22;4974752;28;20478;-56
2023/01/04 02:20:43;;;;;;;16.27;10.17;;;10.70;99.90;;;10.68;64.46;95923.69;4976412;28;20856;-54
2023/01/04 02:23:48;;;;;;;16.47;10.87;;;10.60;99.90;;;10.65;64.46;95914.22;4973760;28;20471;-56
2023/01/04 02:26:58;;;;;;;13.50;10.67;;;10.60;99.90;;;10.61;65.04;95914.56;4976236;28;20505;-55
2023/01/04 02:30:23;;;;;;;15.13;11.17;;;10.50;99.90;;;10.55;64.89;95916.72;4985244;28;20998;-55
2023/01/04 02:33:04;;;;;;;17.83;11.10;;;10.50;99.90;;;10.54;64.52;95916.81;4970772;28;20529;-56
2023/01/04 02:35:32;;;;;;;15.40;10.97;;;10.50;99.90;;;10.51;64.68;95911.78;4975830;28;20514;-57
2023/01/04 02:38:06;;;;;;;12.00;9.27;;;10.50;99.90;;;10.48;64.59;95909.38;4975679;28;21286;-55
2023/01/04 02:40:42;;;;;;;13.30;10.40;;;10.40;99.90;;;10.47;64.83;95910.31;4977049;28;20459;-56
2023/01/04 02:46:02;;;;;;;13.53;10.73;;;10.40;99.90;;;10.39;64.80;95910.88;4979953;28;20459;-56
2023/01/04 02:51:30;;;;;;;21.23;11.73;;;10.30;99.90;;;10.34;64.71;95915.66;4985090;28;20549;-56
2023/01/04 02:53:58;;;;;;;13.57;11.00;;;10.30;99.90;;;10.31;65.17;95911.41;4977665;28;20486;-56
2023/01/04 02:56:35;;;;;;;20.20;11.53;;;10.20;99.90;;;10.29;nan;95907.25;4978175;28;20546;-56
2023/01/04 02:59:25;;;;;;;18.00;11.10;;;10.20;99.90;;;10.25;65.38;95914.50;4976497;28;21227;-56
2023/01/04 03:07:42;;;;;;;16.53;10.93;;;10.10;99.90;;;10.17;65.52;95909.78;4977636;28;21013;-54
2023/01/04 03:10:13;;;;;;;12.87;10.00;;;10.10;99.90;;;10.14;65.41;95907.38;4976213;28;20463;-56
2023/01/04 03:12:43;;;;;;;15.57;11.07;;;10.10;99.90;;;10.13;65.77;95904.88;4976404;28;21039;-56
2023/01/04 03:15:15;;;;;;;14.10;11.00;;;10.10;99.90;;;10.09;65.86;95899.00;4986977;28;20493;-57
2023/01/04 03:17:45;;;;;;;18.00;11.33;;;10.00;99.90;;;10.07;65.92;95902.69;4983322;28;20478;-57
2023/01/04 03:20:14;;;;;;;17.17;10.50;;;10.00;99.90;;;10.04;66.03;95904.59;4986565;28;20450;-56
2023/01/04 03:37:03;;;;;;;20.93;10.93;;;9.90;99.90;;;9.94;66.31;95915.88;4980249;28;20498;-56
2023/01/04 03:50:59;;;;;;;19.43;10.37;;;9.80;99.90;;;9.85;66.07;95922.63;4984775;28;20446;-54
2023/01/04 03:53:27;;;;;;;14.30;11.37;;;9.80;99.90;;;9.84;66.16;95921.78;4978851;28;20609;-55
2023/01/04 03:55:54;;;;;;;16.20;11.87;;;9.80;99.90;;;9.84;66.44;95916.53;4982338;28;20537;-56
2023/01/04 03:58:22;;;;;;;23.63;10.63;;;9.80;99.90;;;9.85;65.94;95923.47;4983228;28;20844;-57
2023/01/04 04:00:49;;;;;;;17.87;10.07;;;9.80;99.90;;;9.87;66.45;95915.50;4981066;28;20454;-56
2023/01/04 04:03:16;;;;;;;11.90;9.17;;;9.80;99.90;;;9.89;66.68;95920.63;4981589;28;20497;-56
2023/01/04 04:08:30;;;;;;;12.07;9.30;;;9.90;99.90;;;9.92;66.48;95934.38;4978133;28;20481;-56
2023/01/04 04:11:28;;;;;;;17.13;10.03;;;9.90;99.90;;;9.94;66.41;95931.66;4980587;28;20623;-54
2023/01/04 04:13:47;;;;;;;14.20;9.10;;;9.90;99.90;;;9.96;66.51;95925.34;4980100;28;21080;-57
2023/01/04 04:16:14;;;;;;;15.23;9.53;;;9.90;99.90;;;9.98;66.83;95933.94;4979817;28;20983;-57
2023/01/04 04:18:41;;;;;;;15.73;10.43;;;9.90;99.90;;;10.00;66.32;95931.22;4980498;28;20542;-57
2023/01/04 04:21:08;;;;;;;14.17;10.87;;;10.00;99.90;;;10.01;66.14;95932.91;4979958;28;20450;-55
2023/01/04 04:23:37;;;;;;;18.30;10.33;;;10.00;99.90;;;10.01;66.50;95939.00;4978181;28;20483;-57
2023/01/04 04:26:04;;;;;;;14.60;10.03;;;10.00;99.90;;;10.04;66.44;95930.88;4978900;28;20517;-57
2023/01/04 04:28:32;;;;;;;16.13;9.97;;;10.00;99.90;;;10.03;66.04;95936.25;4976946;28;20627;-56
2023/01/04 04:30:59;;;;;;;15.17;10.77;;;10.00;99.90;;;10.03;66.39;95947.59;4978480;28;20505;-55
2023/01/04 04:33:26;;;;;;;16.97;10.30;;;10.00;99.90;;;10.02;66.49;95938.06;4979896;28;20506;-55
2023/01/04 04:35:54;;;;;;;18.80;10.37;;;10.00;99.90;;;10.03;66.08;95939.72;4982515;28;20458;-55
2023/01/04 04:38:21;;;;;;;11.43;9.30;;;10.00;99.90;;;10.04;66.38;95946.66;4978948;28;20546;-56
2023/01/04 04:43:35;;;;;;;16.43;11.20;;;10.00;99.90;;;10.08;65.92;95949.91;4981362;28;21141;-57
2023/01/04 04:46:02;;;;;;;16.30;10.53;;;10.00;99.90;;;10.08;66.15;95951.69;4975546;28;21163;-57
2023/01/04 04:48:29;;;;;;;16.90;10.00;;;10.00;99.90;;;10.09;66.13;95959.47;4977380;28;20886;-56
2023/01/04 04:50:57;;;;;;;16.93;10.60;;;10.00;99.90;;;10.10;65.81;95953.28;4981217;28;20451;-56
2023/01/04 04:53:24;;;;;;;17.27;11.10;;;10.00;99.90;;;10.11;66.07;95959.34;4981395;28;20541;-56
2023/01/04 04:55:53;;;;;;;19.93;11.27;;;10.00;99.90;;;10.09;66.23;95956.84;4984527;28;20465;-54
2023/01/04 04:58:20;;;;;;;17.23;10.00;;;10.00;99.90;;;10.13;66.65;95954.81;4974754;28;20467;-57
2023/01/04 05:00:48;;;;;;;18.10;10.23;;;10.00;99.90;;;10.16;67.73;95960.72;4982663;28;20461;-57
2023/01/04 05:03:15;;;;;;;15.60;11.33;;;10.10;99.90;;;10.20;67.53;95956.91;4980216;28;20479;-56
2023/01/04 05:05:43;;;;;;;17.97;10.70;;;10.10;99.90;;;10.23;67.47;95959.31;4984841;28;21029;-56
2023/01/04 05:08:10;;;;;;;18.83;12.27;;;10.20;99.90;;;10.29;67.18;95957.22;4981236;28;20889;-56
2023/01/04 05:10:37;;;;;;;27.33;16.00;;;10.20;99.90;;;10.33;66.99;95964.78;4977377;28;20541;-57
2023/01/04 05:13:07;;;;;;;16.30;11.43;;;10.20;99.90;;;10.34;66.89;95963.81;4976564;28;20608;-58
2023/01/04 05:15:37;;;;;;;15.97;10.73;;;10.30;99.90;;;10.34;67.17;95966.44;4977084;28;20967;-57
2023/01/04 05:18:05;;;;;;;15.80;10.67;;;10.30;99.90;;;10.39;67.92;95968.75;4977372;28;20472;-56
2023/01/04 05:20:32;;;;;;;18.50;11.30;;;10.30;99.90;;;10.44;67.48;95971.03;4977429;28;20529;-57
2023/01/04 05:22:59;;;;;;;15.70;10.63;;;10.30;99.90;;;10.49;68.13;95964.50;4976228;28;21158;-57
2023/01/04 05:25:27;;;;;;;16.50;10.87;;;10.40;99.90;;;10.56;66.89;95975.41;4981268;28;20462;-57
2023/01/04 05:27:54;;;;;;;14.40;10.57;;;10.40;99.90;;;10.58;66.66;95968.22;4976230;28;20871;-55
2023/01/04 05:33:07;;;;;;;11.67;10.03;;;10.50;99.90;;;10.56;66.01;95975.41;4975823;28;20489;-60
2023/01/04 05:35:35;;;;;;;16.20;11.30;;;10.50;99.90;;;10.54;65.88;95972.06;4974697;28;20463;-57
2023/01/04 05:38:02;;;;;;;15.80;11.20;;;10.50;99.90;;;10.53;65.76;95975.63;4974793;28;21115;-55
2023/01/04 05:40:29;;;;;;;22.03;10.63;;;10.40;99.90;;;10.49;65.76;95979.47;4977709;28;20493;-53
2023/01/04 05:42:56;;;;;;;19.07;10.50;;;10.50;99.90;;;10.48;65.70;95985.66;4976312;28;20486;-56
2023/01/04 05:45:25;;;;;;;19.20;10.53;;;10.40;99.90;;;10.46;65.55;95982.31;4976514;28;20454;-55
2023/01/04 05:47:53;;;;;;;12.70;10.27;;;10.40;99.90;;;10.45;65.74;95978.81;4974541;28;20488;-57
2023/01/04 05:50:21;;;;;;;14.63;10.40;;;10.40;99.90;;;10.44;65.54;95982.44;4978933;28;20483;-56
2023/01/04 05:52:48;;;;;;;16.97;10.27;;;10.40;99.90;;;10.43;65.62;95982.53;4976276;28;20974;-55
2023/01/04 05:55:15;;;;;;;27.20;14.83;;;10.40;99.90;;;10.42;65.36;95981.69;4976828;28;20993;-57
2023/01/04 05:57:43;;;;;;;19.60;13.00;;;10.30;99.90;;;10.40;65.38;95986.22;4975773;28;20724;-55
2023/01/04 06:00:12;;;;;;;13.57;10.37;;;10.30;99.90;;;10.40;65.80;95986.22;4976058;28;20447;-57
2023/01/04 06:02:41;;;;;;;17.40;10.57;;;10.30;99.90;;;10.37;65.42;95982.00;4978830;28;20534;-57
2023/01/04 06:05:09;;;;;;;14.53;11.93;;;10.30;99.90;;;10.36;65.29;95985.59;4976273;28;20450;-56
2023/01/04 06:07:36;;;;;;;18.70;12.27;;;10.30;99.90;;;10.35;65.58;95988.34;4979157;28;20474;-58
2023/01/04 06:10:05;;;;;;;17.40;10.63;;;10.30;99.90;;;10.33;65.32;95988.47;4978258;28;20505;-56
2023/01/04 06:12:32;;;;;;;17.00;10.20;;;10.30;99.90;;;10.33;65.63;95990.22;4977596;28;20474;-57
2023/01/04 06:14:59;;;;;;;18.50;11.17;;;10.30;99.90;;;10.32;65.49;95992.00;4979048;28;21074;-57
2023/01/04 06:17:27;;;;;;;13.20;10.40;;;10.30;99.90;;;10.33;65.65;95984.97;4976874;28;21011;-56
2023/01/04 06:19:55;;;;;;;24.77;11.70;;;10.30;99.90;;;10.33;65.40;95998.13;4976402;28;20460;-56
2023/01/04 06:22:23;;;;;;;18.10;10.90;;;10.30;99.90;;;10.34;65.70;95997.19;4977832;28;20537;-55
2023/01/04 06:24:50;;;;;;;15.63;11.70;;;10.20;99.90;;;10.33;65.53;95996.34;4977114;28;20455;-57
2023/01/04 06:27:17;;;;;;;19.03;12.00;;;10.30;99.90;;;10.32;65.39;95997.25;4977207;28;20487;-56
2023/01/04 06:29:44;;;;;;;15.80;10.90;;;10.30;99.90;;;10.32;65.59;95999.88;4976596;28;20534;-57
2023/01/04 06:32:12;;;;;;;15.50;11.10;;;10.30;99.90;;;10.30;65.46;96001.78;4980467;28;21408;-55
2023/01/04 06:34:39;;;;;;;15.43;10.80;;;10.20;99.90;;;10.30;65.57;95999.16;4974849;28;20459;-56
2023/01/04 06:37:08;;;;;;;20.10;11.10;;;10.20;99.90;;;10.30;65.76;96007.06;4979589;28;21086;-57
2023/01/04 06:39:36;;;;;;;14.10;11.43;;;10.30;99.90;;;10.33;65.66;96011.25;4978848;28;20466;-57
2023/01/04 06:42:03;;;;;;;21.80;12.30;;;10.30;99.90;;;10.33;65.45;96009.50;4976719;28;20545;-57
2023/01/04 06:44:30;;;;;;;14.67;10.83;;;10.30;99.90;;;10.34;65.41;96012.97;4974387;28;20466;-57
2023/01/04 06:46:58;;;;;;;13.37;10.30;;;10.30;99.90;;;10.35;65.45;96014.66;4977073;28;20458;-55
2023/01/04 06:49:25;;;;;;;17.30;10.57;;;10.30;99.90;;;10.34;65.31;96011.16;4974337;28;21339;-57
2023/01/04 06:51:52;;;;;;;13.77;9.97;;;10.30;99.90;;;10.35;65.41;96022.53;4985654;28;20451;-56
2023/01/04 06:54:21;;;;;;;15.50;10.70;;;10.30;99.90;;;10.36;65.38;96011.91;4978773;28;20510;-56
2023/01/04 06:56:48;;;;;;;17.30;10.10;;;10.30;99.90;;;10.37;65.13;96008.31;4981968;28;20446;-57
2023/01/04 06:59:15;;;;;;;15.93;10.67;;;10.30;99.90;;;10.40;65.31;96008.09;4981955;28;20450;-57
2023/01/04 07:01:43;;;;;;;12.57;9.93;;;10.30;99.90;;;10.44;65.22;96007.88;4982463;28;20454;-55
2023/01/04 07:04:10;;;;;;;12.67;10.80;;;10.40;99.90;;;10.44;65.24;96008.72;4980884;28;20481;-55
2023/01/04 07:06:37;;;;;;;18.97;10.07;;;10.40;99.90;;;10.49;64.94;96021.53;4985552;28;20447;-57
2023/01/04 07:09:05;;;;;;;20.00;10.60;;;10.40;99.90;;;10.50;64.61;96017.94;4980758;28;20497;-57
2023/01/04 07:11:33;;;;;;;12.43;10.07;;;10.40;99.90;;;10.53;64.88;96022.97;4979881;28;20844;-57
2023/01/04 07:14:01;;;;;;;15.60;10.40;;;10.40;99.90;;;10.54;64.76;96022.03;4981519;28;20474;-57
2023/01/04 07:16:28;;;;;;;16.53;10.10;;;10.50;99.90;;;10.54;64.52;96027.31;4980178;28;20466;-56
2023/01/04 07:18:55;;;;;;;14.13;10.50;;;10.50;99.90;;;10.55;64.62;96026.34;4980912;28;20482;-58
2023/01/04 07:21:24;;;;;;;13.17;9.27;;;10.50;99.90;;;10.56;64.55;96033.28;4979722;28;20485;-57
2023/01/04 07:23:51;;;;;;;11.30;9.60;;;10.50;99.90;;;10.57;64.45;96034.97;4982590;28;21009;-56
2023/01/04 07:26:19;;;;;;;14.13;9.90;;;10.50;99.90;;;10.57;64.34;96043.69;4979350;28;20972;-57
2023/01/04 07:31:32;;;;;;;12.63;10.17;;;10.50;99.90;;;10.55;64.44;96036.84;4979527;28;20827;-57
2023/01/04 07:33:59;;;;;;;16.27;9.87;;;10.50;99.90;;;10.54;64.32;96036.03;4978597;28;20478;-54
2023/01/04 07:36:26;;;;;;;16.07;11.73;;;10.50;99.90;;;10.57;64.29;96050.75;4978519;28;20952;-56
2023/01/04 07:38:54;;;;;;;15.40;10.70;;;10.50;99.90;;;10.58;64.45;96047.16;4982683;28;20810;-56
2023/01/04 07:41:21;;;;;;;13.40;9.83;;;10.50;99.90;;;10.58;64.50;96042.75;4977274;28;20459;-58
2023/01/04 07:43:50;;;;;;;13.10;9.60;;;10.50;99.90;;;10.58;64.30;96039.25;4982198;28;20910;-57
2023/01/04 07:46:17;;;;;;;15.27;10.07;;;10.50;99.90;;;10.60;64.16;96040.00;4977942;28;20494;-55
2023/01/04 07:48:45;;;;;;;21.67;11.10;;;10.50;99.90;;;10.60;64.28;96040.00;4981385;28;20490;-58
2023/01/04 07:51:12;;;;;;;13.00;9.53;;;10.60;99.90;;;10.62;64.37;96039.91;4978769;28;20518;-58
2023/01/04 07:53:39;;;;;;;14.03;10.80;;;10.60;99.90;;;10.64;64.17;96046.72;4980621;28;20474;-55
2023/01/04 07:56:08;;;;;;;16.60;10.33;;;10.60;99.90;;;10.66;64.07;96042.19;4978342;28;20521;-56
2023/01/04 07:58:35;;;;;;;11.93;9.53;;;10.60;99.90;;;10.68;64.23;96052.63;4980501;28;21003;-57
2023/01/04 08:01:12;;;;;;;14.03;9.87;;;10.60;99.90;;;10.68;64.03;96052.63;4978044;28;20463;-56
2023/01/04 08:03:40;;;;;;;13.03;9.97;;;10.60;99.90;;;10.68;64.27;96053.44;4979768;28;20502;-56
2023/01/04 08:06:09;;;;;;;15.40;10.70;;;10.60;99.90;;;10.70;63.98;96055.97;4983790;28;21296;-57
2023/01/04 08:08:36;;;;;;;20.60;11.20;;;10.60;99.90;;;10.72;63.98;96052.28;4978869;28;20475;-55
2023/01/04 08:11:31;;;;;;;14.83;11.67;;;10.60;99.90;;;10.73;63.76;96056.56;4981496;28;20955;-57
2023/01/04 08:13:58;;;;;;;15.27;10.13;;;10.60;99.70;;;10.72;63.76;96056.69;4977517;28;20470;-57
2023/01/04 08:16:30;;;;;;;17.17;10.60;;;10.60;99.60;;;10.73;63.70;96056.56;4980242;28;20467;-58
2023/01/04 08:18:58;;;;;;;17.33;9.60;;;10.60;99.60;;;10.73;63.57;96061.00;4978853;28;20489;-58
2023/01/04 08:21:26;;;;;;;17.30;11.10;;;10.70;99.60;;;10.76;63.94;96060.78;4977260;28;20927;-57
2023/01/04 08:23:53;;;;;;;11.17;9.90;;;10.70;99.70;;;10.79;63.60;96059.72;4976487;28;20484;-57
2023/01/04 08:26:21;;;;;;;12.90;10.20;;;10.70;99.50;;;10.80;63.33;96062.25;4972902;28;20509;-57
2023/01/04 08:28:48;;;;;;;16.27;10.77;;;10.70;99.40;;;10.81;63.36;96057.81;4978050;28;20494;-57
2023/01/04 08:31:17;;;;;;;18.40;10.77;;;10.70;99.40;;;10.79;63.36;96059.72;4979613;28;20480;-57
2023/01/04 08:33:46;;;;;;;16.27;11.40;;;10.70;99.40;;;10.80;63.54;96064.03;4976456;28;20545;-57
2023/01/04 08:36:18;;;;;;;14.10;10.60;;;10.70;99.40;;;10.82;63.54;96064.78;4978791;28;20514;-57
2023/01/04 08:38:45;;;;;;;13.87;10.97;;;10.70;99.40;;;10.82;63.36;96064.78;4977775;28;20475;-57
2023/01/04 08:41:13;;;;;;;13.17;10.00;;;10.80;99.40;;;10.81;63.30;96060.44;4978108;28;20478;-56
2023/01/04 08:43:40;;;;;;;25.20;13.87;;;10.70;99.20;;;10.82;63.32;96056.88;4979088;28;20487;-57
2023/01/04 08:46:08;;;;;;;32.10;16.77;;;10.70;99.20;;;10.84;63.42;96057.59;4977873;28;20455;-58
2023/01/04 08:48:35;;;;;;;17.20;12.20;;;10.70;99.30;;;10.83;63.18;96066.44;4979359;28;20487;-57
2023/01/04 08:51:05;;;;;;;21.57;10.77;;;10.70;99.20;;;10.83;63.15;96055.91;4981987;28;20486;-57
2023/01/04 08:53:33;;;;;;;15.93;11.10;;;10.70;99.10;;;10.81;63.04;96057.81;4978688;28;21024;-57
2023/01/04 08:56:01;;;;;;;21.37;13.50;;;10.80;99.10;;;10.80;63.15;96064.88;4977789;28;20462;-56
2023/01/04 08:58:29;;;;;;;17.83;12.37;;;10.70;99.40;;;10.77;63.11;96065.94;4978609;28;20468;-57
2023/01/04 09:01:01;;;;;;;13.97;11.30;;;10.70;99.20;;;10.82;63.03;96064.78;4977020;28;21285;-57
2023/01/04 09:03:28;;;;;;;15.93;11.50;;;10.70;99.10;;;10.83;62.94;96074.31;4975054;28;20483;-57
2023/01/04 09:06:03;;;;;;;17.67;11.97;;;10.70;99.00;;;10.84;63.02;96068.13;4979885;28;21334;-58
2023/01/04 09:08:32;;;;;;;13.93;10.97;;;10.70;99.00;;;10.81;62.87;96063.06;4972420;28;20544;-56
2023/01/04 09:11:03;;;;;;;15.27;10.70;;;10.70;98.80;;;10.79;62.63;96065.00;4975696;28;20494;-57
2023/01/04 09:13:30;;;;;;;16.77;9.57;;;10.70;98.70;;;10.79;62.79;96062.34;4979283;28;21078;-56
2023/01/04 09:16:08;;;;;;;16.73;9.60;;;10.70;98.70;;;10.76;62.59;96056.34;4977186;28;20455;-56
2023/01/04 09:18:36;;;;;;;15.40;9.77;;;10.70;98.50;;;10.72;62.37;96054.91;4978807;28;20533;-56
2023/01/04 09:21:07;;;;;;;24.00;9.90;;;10.70;98.50;;;10.69;62.19;96057.75;4976890;28;20458;-57
2023/01/04 09:23:35;;;;;;;11.27;8.37;;;10.60;98.30;;;10.67;62.26;96062.28;4979173;28;20487;-58
2023/01/04 09:26:05;;;;;;;11.73;8.47;;;10.60;98.30;;;10.66;62.27;96052.72;4976950;28;20455;-57
2023/01/04 09:28:33;;;;;;;12.53;9.30;;;10.60;98.30;;;10.66;62.25;96052.72;4975867;28;20482;-57
2023/01/04 09:31:05;;;;;;;16.60;9.13;;;10.60;98.30;;;10.66;62.26;96055.34;4978458;28;20509;-57
2023/01/04 09:33:33;;;;;;;11.77;8.80;;;10.60;98.30;;;10.67;61.90;96056.19;4976072;28;20485;-57
2023/01/04 09:36:03;;;;;;;13.40;9.20;;;10.60;98.10;;;10.67;62.04;96046.50;4977548;28;20457;-56
2023/01/04 09:38:31;;;;;;;11.60;8.90;;;10.60;98.20;;;10.67;62.06;96049.13;4979053;28;20502;-56
2023/01/04 09:41:05;;;;;;;15.40;8.20;;;10.60;98.20;;;10.64;61.81;96046.72;4976363;28;20458;-56
2023/01/04 09:43:36;;;;;;;11.63;9.67;;;10.60;98.00;;;10.64;62.14;96044.09;4979387;28;20862;-58
2023/01/04 09:46:07;;;;;;;13.13;9.67;;;10.60;98.10;;;10.66;61.86;96047.47;4975696;28;20439;-56
2023/01/04 09:48:34;;;;;;;12.43;9.10;;;10.60;98.10;;;10.69;61.99;96044.59;4977956;28;20606;-55
2023/01/04 09:51:02;;;;;;;17.10;9.10;;;10.60;98.10;;;10.70;61.76;96033.09;4979369;28;20881;-56
2023/01/04 09:53:33;;;;;;;18.97;9.40;;;10.60;98.10;;;10.71;61.88;96036.59;4977812;28;20863;-57
2023/01/04 09:56:08;;;;;;;13.27;9.60;;;10.70;98.30;;;10.73;61.82;96037.31;4975402;28;20456;-56
2023/01/04 09:58:36;;;;;;;14.97;9.10;;;10.70;98.00;;;10.73;61.91;96040.78;4970905;28;20478;-56
2023/01/04 10:01:05;;;;;;;21.03;9.10;;;10.70;98.00;;;10.75;61.67;96038.03;4976836;28;20459;-59
2023/01/04 10:03:34;;;;;;;11.37;8.93;;;10.70;98.10;;;10.76;61.92;96037.94;4979909;28;20568;-58
2023/01/04 10:06:02;;;;;;;13.63;9.37;;;10.70;98.10;;;10.83;61.91;96034.84;4980281;28;20463;-58
2023/01/04 10:08:31;;;;;;;11.00;8.60;;;10.70;98.10;;;10.85;61.65;96041.69;4978371;28;20474;-58
2023/01/04 10:11:14;;;;;;;14.00;9.43;;;10.80;97.90;;;10.82;61.63;96038.44;4977642;28;20576;-58
2023/01/04 10:14:02;;;;;;;15.73;9.13;;;10.80;97.90;;;10.86;61.79;96039.88;4973766;28;20478;-56
2023/01/04 10:16:45;;;;;;;12.27;9.60;;;10.80;98.00;;;10.89;61.44;96039.66;4974768;28;20899;-57
2023/01/04 10:19:24;;;;;;;16.50;9.60;;;10.80;97.90;;;10.92;61.74;96039.44;4978094;28;20585;-56
2023/01/04 10:21:54;;;;;;;12.57;9.10;;;10.80;97.80;;;10.97;61.67;96041.72;4971001;28;20447;-54
2023/01/04 10:24:39;;;;;;;12.97;9.60;;;10.90;97.90;;;11.00;61.71;96031.84;4980068;28;20454;-57
2023/01/04 10:27:09;;;;;;;14.87;10.50;;;10.90;97.90;;;11.00;61.53;96031.84;4976140;28;20877;-56
2023/01/04 10:29:48;;;;;;;13.37;9.17;;;10.90;97.80;;;10.99;61.75;96027.50;4977436;28;20494;-56
2023/01/04 10:32:19;;;;;;;19.50;9.67;;;10.90;97.90;;;10.98;61.74;96032.88;4972281;28;20471;-58
2023/01/04 10:34:47;;;;;;;12.30;9.47;;;10.90;97.80;;;10.94;61.53;96029.66;4976152;28;20538;-57
2023/01/04 10:37:17;;;;;;;12.80;9.77;;;10.90;97.90;;;10.93;61.85;96028.78;4975747;28;20563;-57
2023/01/04 10:39:46;;;;;;;13.80;9.47;;;10.90;97.90;;;10.93;61.71;96035.88;4976921;28;20535;-56
2023/01/04 10:42:18;;;;;;;10.13;8.80;;;10.80;97.90;;;10.90;61.57;96036.09;4975540;28;20480;-56
2023/01/04 10:45:09;;;;;;;15.07;10.13;;;10.80;97.80;;;10.81;61.84;96029.69;4977228;28;20454;-55
2023/01/04 10:47:43;;;;;;;15.03;9.97;;;10.80;97.90;;;10.81;62.02;96034.97;4973100;28;21077;-57
2023/01/04 10:50:16;;;;;;;11.87;8.37;;;10.70;97.90;;;10.79;61.95;96030.78;4978446;28;20476;-56
2023/01/04 10:52:45;;;;;;;15.80;9.23;;;10.70;98.00;;;10.74;61.57;96037.22;4970208;28;20483;-55
2023/01/04 10:55:17;;;;;;;9.73;7.80;;;10.70;97.90;;;10.75;61.92;96028.38;4976932;28;20463;-56
2023/01/04 10:57:47;;;;;;;10.77;8.07;;;10.70;98.00;;;10.76;61.83;96026.56;4974949;28;20474;-57
2023/01/04 11:00:17;;;;;;;11.70;8.10;;;10.70;98.00;;;10.79;61.65;96022.88;4978704;28;20530;-57
2023/01/04 11:02:47;;;;;;;13.60;8.00;;;10.70;98.00;;;10.82;61.65;96017.41;4976815;28;20474;-56
2023/01/04 11:05:19;;;;;;;12.10;9.00;;;10.80;98.00;;;10.87;61.85;96023.16;4976515;28;20470;-56
2023/01/04 11:07:49;;;;;;;15.23;9.37;;;10.80;98.00;;;10.91;61.72;96021.97;4978321;28;20498;-56
2023/01/04 11:10:20;;;;;;;19.17;12.13;;;10.80;97.90;;;10.97;61.61;96020.66;4974079;28;20488;-55